createdAt,value
2018-04-30T00:00:47.002Z,58.32
2018-04-30T00:03:14.363Z,59.06
2018-04-30T00:05:41.745Z,57.86
2018-04-30T00:08:09.122Z,57.55
2018-04-30T00:10:36.495Z,57.41
2018-04-30T00:13:03.868Z,57.93
2018-04-30T00:15:31.246Z,59.07
2018-04-30T00:17:58.656Z,59.13
2018-04-30T00:20:26.034Z,59.84
2018-04-30T00:22:53.407Z,60.38
2018-04-30T00:25:20.782Z,59.77
2018-04-30T00:27:48.143Z,59.54
2018-04-30T00:30:15.547Z,59.62
2018-04-30T00:32:42.929Z,59.02
2018-04-30T00:35:10.304Z,59.11
2018-04-30T00:37:37.692Z,59.48
2018-04-30T00:40:05.074Z,59.57
2018-04-30T00:42:32.456Z,58.88
2018-04-30T00:44:59.847Z,58.28
2018-04-30T00:47:27.218Z,57.61
2018-04-30T00:49:54.590Z,58.66
2018-04-30T00:52:21.978Z,58.96
2018-04-30T00:55:00.090Z,59.22
2018-04-30T00:57:27.465Z,58.69
2018-04-30T00:59:54.835Z,58.26
2018-04-30T01:02:22.216Z,57.47
2018-04-30T01:04:49.591Z,56.71
2018-04-30T01:07:17.038Z,56.44
2018-04-30T01:09:44.425Z,56.85
2018-04-30T01:12:11.995Z,56.54
2018-04-30T01:14:39.368Z,56.55
2018-04-30T01:17:06.743Z,56.24
2018-04-30T01:19:34.119Z,56.71
2018-04-30T01:22:01.561Z,56.77
2018-04-30T01:24:28.911Z,56.90
2018-04-30T01:26:56.292Z,57.21
2018-04-30T01:29:23.662Z,57.60
2018-04-30T01:31:51.102Z,57.03
2018-04-30T01:34:18.488Z,58.33
2018-04-30T01:36:45.861Z,57.49
2018-04-30T01:39:13.243Z,57.11
2018-04-30T01:41:40.776Z,57.54
2018-04-30T01:44:08.211Z,57.18
2018-04-30T01:46:35.786Z,57.36
2018-04-30T01:49:03.160Z,56.79
2018-04-30T01:51:30.530Z,56.55
2018-04-30T01:53:57.902Z,57.28
2018-04-30T01:56:25.277Z,57.47
2018-04-30T01:58:52.667Z,57.08
2018-04-30T02:01:20.047Z,57.15
2018-04-30T02:03:47.440Z,56.99
2018-04-30T02:06:15.011Z,56.66
2018-04-30T02:08:42.400Z,57.00
2018-04-30T02:11:09.773Z,57.11
2018-04-30T02:13:37.158Z,56.49
2018-04-30T02:16:04.532Z,56.92
2018-04-30T02:18:31.961Z,56.23
2018-04-30T02:20:59.327Z,56.92
2018-04-30T02:23:26.721Z,56.73
2018-04-30T02:25:54.093Z,56.51
2018-04-30T02:28:21.659Z,56.18
2018-04-30T02:30:49.034Z,56.18
2018-04-30T02:33:16.414Z,56.00
2018-04-30T02:35:43.807Z,55.80
2018-04-30T02:38:11.205Z,55.92
2018-04-30T02:40:38.670Z,55.80
2018-04-30T02:43:06.084Z,56.44
2018-04-30T02:45:33.443Z,56.04
2018-04-30T02:48:00.940Z,55.93
2018-04-30T02:50:28.299Z,57.12
2018-04-30T02:52:55.675Z,56.62
2018-04-30T02:55:23.063Z,57.17
2018-04-30T02:57:50.471Z,57.05
2018-04-30T03:00:17.850Z,57.47
2018-04-30T03:02:45.231Z,56.85
2018-04-30T03:05:12.599Z,57.43
2018-04-30T03:07:39.982Z,57.04
2018-04-30T03:10:07.374Z,56.90
2018-04-30T03:12:34.735Z,56.82
2018-04-30T03:15:02.121Z,57.00
2018-04-30T03:17:29.491Z,56.66
2018-04-30T03:19:56.871Z,55.89
2018-04-30T03:22:24.247Z,56.12
2018-04-30T03:24:51.621Z,56.54
2018-04-30T03:27:19.000Z,56.94
2018-04-30T03:29:46.371Z,56.56
2018-04-30T03:32:13.739Z,56.56
2018-04-30T03:34:41.126Z,57.01
2018-04-30T03:37:08.568Z,57.05
2018-04-30T03:39:35.955Z,56.54
2018-04-30T03:42:03.338Z,56.13
2018-04-30T03:44:30.739Z,56.80
2018-04-30T03:46:58.115Z,56.38
2018-04-30T03:49:25.533Z,56.44
2018-04-30T03:51:52.919Z,56.71
2018-04-30T03:54:20.443Z,57.12
2018-04-30T03:56:47.827Z,57.29
2018-04-30T03:59:15.191Z,57.35
2018-04-30T04:01:54.207Z,57.18
2018-04-30T04:04:33.213Z,57.32
2018-04-30T04:07:00.582Z,56.56
2018-04-30T04:09:27.957Z,57.51
2018-04-30T04:11:55.336Z,57.66
2018-04-30T04:14:22.714Z,57.70
2018-04-30T04:16:50.082Z,57.92
2018-04-30T04:19:17.466Z,58.01
2018-04-30T04:21:44.831Z,58.15
2018-04-30T04:24:12.207Z,57.85
2018-04-30T04:26:39.590Z,58.63
2018-04-30T04:29:07.003Z,59.04
2018-04-30T04:31:34.354Z,58.53
2018-04-30T04:34:01.738Z,58.83
2018-04-30T04:36:29.117Z,58.93
2018-04-30T04:38:56.487Z,58.21
2018-04-30T04:41:23.854Z,59.32
2018-04-30T04:43:51.229Z,59.34
2018-04-30T04:46:18.617Z,59.43
2018-04-30T04:48:45.986Z,60.14
2018-04-30T04:51:13.370Z,60.21
2018-04-30T04:53:40.755Z,61.07
2018-04-30T04:56:08.141Z,60.85
2018-04-30T04:58:35.526Z,61.46
2018-04-30T05:01:02.902Z,61.86
2018-04-30T05:03:30.273Z,62.95
2018-04-30T05:05:57.663Z,63.89
2018-04-30T05:08:25.060Z,64.11
2018-04-30T05:10:52.484Z,65.45
2018-04-30T05:13:19.874Z,65.40
2018-04-30T05:15:47.269Z,67.69
2018-04-30T05:18:14.649Z,73.25
2018-04-30T05:20:42.045Z,77.58
2018-04-30T05:23:09.427Z,79.71
2018-04-30T05:25:37.006Z,79.79
2018-04-30T05:28:04.388Z,79.68
2018-04-30T05:30:31.759Z,77.97
2018-04-30T05:32:59.124Z,77.64
2018-04-30T05:35:26.563Z,78.11
2018-04-30T05:37:53.918Z,76.58
2018-04-30T05:40:21.333Z,75.33
2018-04-30T05:42:48.752Z,73.88
2018-04-30T05:45:16.124Z,71.80
2018-04-30T05:47:46.724Z,72.73
2018-04-30T05:50:16.761Z,71.89
2018-04-30T05:52:46.114Z,71.53
2018-04-30T05:55:13.650Z,71.76
2018-04-30T05:57:41.034Z,71.66
2018-04-30T06:00:08.411Z,71.09
2018-04-30T06:02:35.788Z,70.98
2018-04-30T06:05:03.179Z,70.51
2018-04-30T06:07:30.551Z,71.31
2018-04-30T06:09:57.943Z,70.55
2018-04-30T06:12:25.340Z,70.50
2018-04-30T06:14:52.743Z,70.25
2018-04-30T06:17:20.146Z,70.07
2018-04-30T06:19:47.532Z,69.45
2018-04-30T06:22:14.913Z,69.64
2018-04-30T06:24:42.342Z,69.54
2018-04-30T06:27:09.850Z,69.69
2018-04-30T06:29:37.708Z,68.97
2018-04-30T06:32:05.107Z,69.34
2018-04-30T06:34:32.573Z,69.23
2018-04-30T06:36:59.948Z,69.07
2018-04-30T06:39:27.352Z,69.59
2018-04-30T06:41:54.743Z,68.62
2018-04-30T06:44:22.120Z,68.50
2018-04-30T06:46:49.529Z,68.29
2018-04-30T06:49:16.912Z,68.31
2018-04-30T06:51:44.347Z,67.93
2018-04-30T06:54:11.726Z,67.48
2018-04-30T06:56:39.116Z,66.90
2018-04-30T06:59:06.506Z,65.80
2018-04-30T07:01:33.888Z,65.96
2018-04-30T07:04:01.255Z,65.58
2018-04-30T07:06:28.715Z,64.89
2018-04-30T07:08:56.087Z,64.16
2018-04-30T07:11:23.492Z,64.27
2018-04-30T07:13:50.861Z,64.23
2018-04-30T07:16:18.237Z,63.82
2018-04-30T07:18:45.721Z,63.48
2018-04-30T07:21:13.124Z,63.27
2018-04-30T07:23:40.516Z,63.45
2018-04-30T07:26:07.898Z,63.54
2018-04-30T07:28:35.283Z,62.96
2018-04-30T07:31:02.679Z,62.88
2018-04-30T07:33:30.062Z,62.83
2018-04-30T07:35:57.455Z,62.97
2018-04-30T07:38:24.879Z,63.15
2018-04-30T07:40:52.270Z,63.45
2018-04-30T07:43:20.959Z,63.46
2018-04-30T07:45:48.364Z,62.76
2018-04-30T07:48:16.009Z,62.06
2018-04-30T07:50:43.440Z,62.19
2018-04-30T07:53:10.930Z,60.92
2018-04-30T07:55:38.329Z,60.83
2018-04-30T07:58:05.720Z,60.58
2018-04-30T08:00:33.115Z,60.75
2018-04-30T08:03:00.598Z,60.58
2018-04-30T08:05:27.936Z,60.74
2018-04-30T08:07:55.311Z,60.62
2018-04-30T08:10:22.684Z,59.71
2018-04-30T08:12:50.061Z,59.63
2018-04-30T08:15:17.449Z,59.99
2018-04-30T08:17:44.822Z,60.53
2018-04-30T08:20:12.270Z,60.49
2018-04-30T08:22:39.663Z,58.87
2018-04-30T08:25:07.102Z,58.89
2018-04-30T08:27:35.121Z,58.50
2018-04-30T08:30:02.564Z,58.21
2018-04-30T08:32:30.977Z,58.21
2018-04-30T08:34:58.362Z,58.57
2018-04-30T08:37:25.740Z,58.62
2018-04-30T08:39:53.136Z,58.98
2018-04-30T08:42:20.517Z,58.39
2018-04-30T08:44:47.922Z,57.93
2018-04-30T08:47:15.338Z,57.87
2018-04-30T08:49:42.717Z,56.80
2018-04-30T08:52:10.137Z,55.86
2018-04-30T08:54:37.507Z,55.21
2018-04-30T08:57:04.891Z,53.92
2018-04-30T08:59:32.467Z,53.55
2018-04-30T09:01:59.852Z,53.36
2018-04-30T09:04:27.232Z,51.57
2018-04-30T09:06:54.622Z,50.97
2018-04-30T09:09:22.684Z,50.94
2018-04-30T09:11:50.156Z,50.81
2018-04-30T09:14:19.062Z,49.57
2018-04-30T09:16:46.445Z,48.82
2018-04-30T09:19:13.823Z,48.99
2018-04-30T09:21:41.205Z,48.42
2018-04-30T09:24:08.593Z,47.94
2018-04-30T09:26:35.982Z,47.39
2018-04-30T09:29:03.353Z,47.02
2018-04-30T09:31:30.728Z,47.01
2018-04-30T09:33:58.123Z,45.72
2018-04-30T09:36:25.611Z,45.68
2018-04-30T09:38:52.996Z,45.26
2018-04-30T09:41:20.432Z,45.27
2018-04-30T09:43:47.818Z,45.50
2018-04-30T09:46:15.179Z,45.33
2018-04-30T09:48:42.960Z,45.29
2018-04-30T09:51:10.343Z,45.40
2018-04-30T09:53:37.736Z,45.11
2018-04-30T09:56:05.112Z,45.14
2018-04-30T09:58:32.517Z,45.60
2018-04-30T10:00:59.884Z,45.64
2018-04-30T10:03:27.264Z,45.50
2018-04-30T10:05:54.647Z,45.55
2018-04-30T10:08:22.026Z,45.65
2018-04-30T10:10:49.397Z,45.19
2018-04-30T10:13:16.795Z,45.10
2018-04-30T10:15:44.192Z,44.51
2018-04-30T10:18:11.874Z,45.01
2018-04-30T10:20:39.275Z,44.57
2018-04-30T10:23:06.753Z,45.16
2018-04-30T10:25:34.133Z,44.08
2018-04-30T10:28:01.526Z,43.12
2018-04-30T10:30:28.992Z,42.40
2018-04-30T10:32:56.401Z,41.27
2018-04-30T10:35:23.775Z,42.01
2018-04-30T10:37:52.227Z,42.00
2018-04-30T10:40:19.579Z,42.58
2018-04-30T10:42:47.151Z,42.93
2018-04-30T10:45:14.523Z,42.84
2018-04-30T10:47:42.785Z,43.06
2018-04-30T10:50:10.285Z,43.41
2018-04-30T10:52:37.926Z,43.02
2018-04-30T10:55:05.303Z,42.95
2018-04-30T10:57:32.704Z,43.17
2018-04-30T11:00:00.158Z,42.74
2018-04-30T11:02:27.486Z,42.08
2018-04-30T11:04:54.883Z,41.81
2018-04-30T11:07:22.258Z,41.45
2018-04-30T11:09:49.667Z,41.46
2018-04-30T11:12:17.877Z,40.98
2018-04-30T11:14:45.288Z,41.04
2018-04-30T11:17:12.824Z,41.66
2018-04-30T11:19:40.293Z,41.58
2018-04-30T11:22:07.702Z,41.70
2018-04-30T11:24:35.257Z,42.04
2018-04-30T11:27:02.623Z,41.18
2018-04-30T11:29:30.075Z,40.64
2018-04-30T11:31:57.473Z,40.35
2018-04-30T11:34:24.900Z,40.52
2018-04-30T11:36:52.352Z,40.52
2018-04-30T11:39:19.824Z,40.18
2018-04-30T11:41:47.221Z,39.53
2018-04-30T11:44:14.615Z,38.69
2018-04-30T11:46:42.139Z,38.18
2018-04-30T11:49:09.584Z,37.84
2018-04-30T11:51:36.989Z,37.27
2018-04-30T11:54:04.479Z,35.63
2018-04-30T11:56:31.866Z,35.28
2018-04-30T11:58:59.257Z,35.98
2018-04-30T12:01:26.671Z,36.20
2018-04-30T12:03:54.043Z,35.57
2018-04-30T12:06:21.417Z,35.31
2018-04-30T12:08:48.835Z,33.04
2018-04-30T12:11:16.360Z,34.37
2018-04-30T12:13:43.759Z,33.27
2018-04-30T12:16:11.179Z,32.19
2018-04-30T12:18:38.556Z,32.21
2018-04-30T12:21:05.966Z,30.97
2018-04-30T12:23:33.326Z,29.85
2018-04-30T12:26:00.729Z,29.99
2018-04-30T12:28:28.215Z,29.00
2018-04-30T12:30:55.598Z,31.27
2018-04-30T12:33:23.124Z,32.23
2018-04-30T12:35:50.497Z,32.85
2018-04-30T12:38:17.873Z,33.40
2018-04-30T12:40:45.259Z,35.03
2018-04-30T12:43:12.677Z,35.16
2018-04-30T12:45:40.160Z,35.44
2018-04-30T12:48:07.522Z,36.29
2018-04-30T12:50:34.960Z,35.66
2018-04-30T12:53:02.356Z,32.79
2018-04-30T12:55:29.743Z,32.24
2018-04-30T12:57:57.128Z,33.49
2018-04-30T13:00:24.547Z,33.23
2018-04-30T13:02:51.982Z,33.59
2018-04-30T13:05:19.369Z,29.93
2018-04-30T13:07:46.744Z,29.53
2018-04-30T13:10:14.136Z,31.65
2018-04-30T13:12:41.585Z,29.90
2018-04-30T13:15:08.959Z,30.38
2018-04-30T13:17:36.339Z,27.99
2018-04-30T13:20:03.719Z,27.78
2018-04-30T13:22:31.091Z,28.12
2018-04-30T13:24:58.537Z,28.57
2018-04-30T13:27:25.933Z,27.40
2018-04-30T13:29:53.304Z,26.36
2018-04-30T13:32:20.690Z,25.05
2018-04-30T13:34:48.079Z,25.35
2018-04-30T13:37:15.517Z,25.38
2018-04-30T13:39:48.662Z,25.08
2018-04-30T13:42:20.179Z,24.21
2018-04-30T13:44:47.715Z,23.06
2018-04-30T13:47:15.106Z,22.96
2018-04-30T13:49:42.511Z,25.54
2018-04-30T13:52:09.884Z,26.10
2018-04-30T13:54:37.326Z,27.00
2018-04-30T13:57:04.719Z,26.03
2018-04-30T13:59:32.140Z,25.33
2018-04-30T14:01:59.533Z,24.11
2018-04-30T14:04:26.896Z,24.10
2018-04-30T14:06:57.517Z,23.87
2018-04-30T14:09:29.840Z,23.89
2018-04-30T14:11:58.491Z,24.66
2018-04-30T14:14:25.863Z,25.14
2018-04-30T14:16:53.282Z,26.96
2018-04-30T14:19:20.713Z,27.33
2018-04-30T14:21:48.107Z,27.95
2018-04-30T14:24:15.500Z,28.33
2018-04-30T14:26:42.889Z,28.42
2018-04-30T14:29:10.278Z,28.35
2018-04-30T14:31:37.749Z,28.93
2018-04-30T14:34:05.062Z,29.31
2018-04-30T14:36:32.442Z,29.91
2018-04-30T14:38:59.832Z,30.36
2018-04-30T14:41:27.232Z,29.23
2018-04-30T14:43:54.627Z,30.45
2018-04-30T14:46:22.086Z,28.38
2018-04-30T14:48:49.460Z,27.77
2018-04-30T14:51:16.892Z,26.86
2018-04-30T14:53:44.234Z,26.12
2018-04-30T14:56:11.625Z,27.12
2018-04-30T14:58:38.999Z,26.26
2018-04-30T15:01:06.375Z,25.31
2018-04-30T15:03:33.756Z,26.46
2018-04-30T15:06:01.132Z,27.51
2018-04-30T15:08:28.601Z,25.64
2018-04-30T15:10:55.969Z,25.19
2018-04-30T15:13:23.377Z,25.04
2018-04-30T15:15:50.813Z,26.29
2018-04-30T15:18:18.226Z,24.37
2018-04-30T15:20:45.646Z,25.53
2018-04-30T15:23:13.126Z,25.86
2018-04-30T15:25:40.666Z,25.12
2018-04-30T15:28:08.048Z,24.85
2018-04-30T15:30:35.779Z,25.00
2018-04-30T15:33:03.180Z,27.50
2018-04-30T15:35:30.590Z,27.92
2018-04-30T15:37:58.004Z,28.94
2018-04-30T15:40:25.372Z,27.78
2018-04-30T15:42:52.755Z,28.83
2018-04-30T15:45:20.473Z,27.08
2018-04-30T15:47:47.900Z,26.71
2018-04-30T15:50:15.255Z,26.07
2018-04-30T15:52:42.645Z,25.67
2018-04-30T15:55:10.061Z,24.29
2018-04-30T15:57:39.248Z,24.54
2018-04-30T16:00:06.758Z,24.75
2018-04-30T16:02:34.289Z,23.70
2018-04-30T16:05:03.888Z,24.68
2018-04-30T16:07:31.448Z,23.58
2018-04-30T16:09:58.833Z,24.60
2018-04-30T16:12:26.221Z,26.21
2018-04-30T16:14:53.603Z,27.24
2018-04-30T16:17:20.981Z,28.50
2018-04-30T16:19:48.364Z,30.09
2018-04-30T16:22:15.754Z,30.24
2018-04-30T16:24:43.191Z,30.77
2018-04-30T16:27:10.563Z,31.71
2018-04-30T16:29:37.972Z,32.96
2018-04-30T16:32:05.384Z,32.85
2018-04-30T16:34:32.784Z,32.72
2018-04-30T16:37:00.183Z,32.71
2018-04-30T16:39:27.615Z,32.95
2018-04-30T16:41:55.132Z,33.01
2018-04-30T16:44:22.622Z,33.54
2018-04-30T16:46:50.000Z,34.44
2018-04-30T16:49:17.491Z,34.22
2018-04-30T16:51:44.875Z,33.77
2018-04-30T16:54:12.327Z,33.46
2018-04-30T16:56:39.720Z,33.26
2018-04-30T16:59:07.142Z,33.51
2018-04-30T17:01:34.553Z,33.30
2018-04-30T17:04:01.943Z,32.68
2018-04-30T17:06:29.339Z,32.68
2018-04-30T17:08:56.721Z,32.42
2018-04-30T17:11:24.088Z,32.58
2018-04-30T17:13:51.471Z,32.82
2018-04-30T17:16:18.928Z,33.33
2018-04-30T17:18:46.336Z,33.12
2018-04-30T17:21:13.734Z,34.21
2018-04-30T17:23:41.286Z,34.84
2018-04-30T17:26:08.970Z,36.38
2018-04-30T17:28:36.371Z,37.58
2018-04-30T17:31:03.757Z,37.38
2018-04-30T17:33:31.123Z,38.26
2018-04-30T17:35:58.530Z,38.94
2018-04-30T17:38:25.920Z,39.41
2018-04-30T17:40:53.331Z,39.22
2018-04-30T17:43:20.710Z,39.32
2018-04-30T17:45:48.103Z,40.47
2018-04-30T17:48:15.500Z,39.60
2018-04-30T17:50:42.883Z,40.49
2018-04-30T17:53:10.249Z,42.20
2018-04-30T17:55:37.650Z,42.08
2018-04-30T17:58:05.021Z,43.13
2018-04-30T18:00:32.392Z,44.71
2018-04-30T18:02:59.830Z,43.94
2018-04-30T18:05:27.208Z,44.62
2018-04-30T18:07:54.598Z,45.26
2018-04-30T18:10:22.012Z,45.55
2018-04-30T18:12:49.477Z,45.73
2018-04-30T18:15:37.655Z,45.20
2018-04-30T18:18:05.150Z,45.54
2018-04-30T18:20:33.354Z,45.02
2018-04-30T18:23:00.723Z,44.55
2018-04-30T18:25:28.133Z,44.17
2018-04-30T18:27:55.506Z,44.33
2018-04-30T18:30:22.918Z,44.11
2018-04-30T18:32:50.299Z,44.50
2018-04-30T18:35:17.691Z,44.85
2018-04-30T18:37:45.063Z,44.76
2018-04-30T18:40:12.443Z,44.75
2018-04-30T18:42:39.829Z,44.93
2018-04-30T18:45:07.204Z,45.54
2018-04-30T18:47:34.660Z,45.60
2018-04-30T18:50:02.016Z,46.23
2018-04-30T18:52:29.406Z,46.26
2018-04-30T18:54:56.786Z,46.40
2018-04-30T18:57:24.177Z,46.35
2018-04-30T18:59:51.553Z,46.56
2018-04-30T19:02:18.942Z,46.51
2018-04-30T19:04:46.323Z,46.51
2018-04-30T19:07:13.711Z,46.82
2018-04-30T19:09:41.259Z,47.17
2018-04-30T19:12:08.628Z,46.97
2018-04-30T19:14:36.003Z,46.88
2018-04-30T19:17:03.394Z,46.31
2018-04-30T19:19:30.808Z,46.46
2018-04-30T19:21:58.168Z,46.41
2018-04-30T19:24:25.560Z,46.47
2018-04-30T19:26:52.955Z,45.89
2018-04-30T19:29:20.472Z,46.16
2018-04-30T19:31:47.967Z,46.30
2018-04-30T19:34:15.353Z,45.92
2018-04-30T19:36:42.760Z,46.19
2018-04-30T19:39:10.141Z,46.14
2018-04-30T19:41:37.534Z,46.81
2018-04-30T19:44:05.874Z,47.19
2018-04-30T19:46:33.247Z,47.21
2018-04-30T19:49:00.686Z,46.90
2018-04-30T19:51:28.075Z,46.99
2018-04-30T19:53:55.540Z,47.03
2018-04-30T19:56:22.925Z,46.81
2018-04-30T19:58:50.347Z,46.68
2018-04-30T20:01:17.736Z,46.81
2018-04-30T20:03:45.258Z,46.68
2018-04-30T20:06:12.623Z,46.73
2018-04-30T20:08:40.023Z,46.41
2018-04-30T20:11:07.400Z,46.82
2018-04-30T20:13:40.689Z,46.62
2018-04-30T20:16:08.184Z,46.86
2018-04-30T20:18:35.570Z,47.21
2018-04-30T20:21:02.987Z,47.09
2018-04-30T20:23:30.436Z,47.11
2018-04-30T20:25:57.915Z,47.56
2018-04-30T20:28:25.321Z,47.35
2018-04-30T20:30:53.276Z,47.56
2018-04-30T20:33:20.656Z,48.07
2018-04-30T20:35:48.169Z,47.85
2018-04-30T20:38:15.656Z,48.18
2018-04-30T20:40:43.042Z,48.21
2018-04-30T20:43:10.432Z,48.37
2018-04-30T20:45:37.811Z,48.59
2018-04-30T20:48:05.188Z,48.28
2018-04-30T20:50:32.684Z,48.67
2018-04-30T20:52:59.976Z,49.09
2018-04-30T20:55:27.353Z,48.77
2018-04-30T20:57:55.121Z,49.12
2018-04-30T21:00:22.539Z,49.08
2018-04-30T21:02:49.917Z,48.92
2018-04-30T21:05:17.307Z,49.16
2018-04-30T21:07:44.723Z,48.92
2018-04-30T21:10:12.117Z,50.06
2018-04-30T21:12:39.517Z,49.29
2018-04-30T21:15:06.992Z,49.54
2018-04-30T21:17:34.575Z,49.64
2018-04-30T21:20:01.848Z,49.12
2018-04-30T21:22:29.393Z,49.03
2018-04-30T21:24:56.801Z,48.88
2018-04-30T21:27:24.259Z,48.85
2018-04-30T21:29:51.612Z,49.19
2018-04-30T21:32:19.159Z,49.29
2018-04-30T21:34:51.235Z,49.78
2018-04-30T21:37:18.714Z,49.27
2018-04-30T21:39:46.219Z,49.38
2018-04-30T21:42:14.263Z,49.23
2018-04-30T21:44:41.639Z,48.99
2018-04-30T21:47:09.032Z,48.60
2018-04-30T21:49:36.421Z,48.49
2018-04-30T21:52:03.833Z,47.68
2018-04-30T21:54:31.273Z,47.92
2018-04-30T21:56:58.644Z,48.62
2018-04-30T21:59:26.076Z,49.23
2018-04-30T22:01:53.468Z,48.81
2018-04-30T22:04:20.862Z,48.81
2018-04-30T22:06:48.252Z,48.80
2018-04-30T22:09:15.639Z,48.80
2018-04-30T22:11:43.051Z,49.53
2018-04-30T22:14:10.443Z,50.28
2018-04-30T22:16:37.839Z,50.82
2018-04-30T22:19:05.202Z,50.23
2018-04-30T22:21:32.599Z,51.27
2018-04-30T22:23:59.990Z,50.14
2018-04-30T22:26:27.372Z,50.69
2018-04-30T22:28:54.770Z,50.69
2018-04-30T22:31:22.162Z,50.83
2018-04-30T22:33:49.598Z,50.46
2018-04-30T22:36:16.998Z,50.63
2018-04-30T22:38:44.399Z,50.74
2018-04-30T22:41:11.793Z,50.83
2018-04-30T22:43:39.179Z,51.03
2018-04-30T22:46:06.552Z,51.06
2018-04-30T22:48:33.940Z,51.70
2018-04-30T22:51:01.312Z,51.38
2018-04-30T22:53:28.775Z,51.90
2018-04-30T22:55:56.318Z,51.45
2018-04-30T22:58:23.699Z,51.84
2018-04-30T23:00:51.179Z,52.02
2018-04-30T23:03:18.571Z,52.41
2018-04-30T23:05:45.959Z,52.73
2018-04-30T23:08:13.326Z,52.46
2018-04-30T23:10:40.735Z,53.08
2018-04-30T23:13:08.107Z,53.35
2018-04-30T23:15:35.486Z,53.17
2018-04-30T23:18:02.855Z,53.30
2018-04-30T23:20:30.306Z,52.83
2018-04-30T23:22:57.720Z,52.92
2018-04-30T23:25:25.076Z,52.47
2018-04-30T23:27:52.469Z,52.75
2018-04-30T23:30:19.859Z,51.94
2018-04-30T23:32:47.266Z,52.18
2018-04-30T23:35:14.714Z,51.97
2018-04-30T23:37:42.023Z,51.67
2018-04-30T23:40:09.412Z,52.25
2018-04-30T23:42:36.800Z,52.27
2018-04-30T23:45:04.211Z,52.20
2018-04-30T23:47:31.716Z,52.21
2018-04-30T23:49:59.104Z,52.46
2018-04-30T23:52:26.521Z,52.64
2018-04-30T23:54:53.891Z,52.35
2018-04-30T23:57:21.286Z,52.70
2018-04-30T23:59:48.673Z,52.52
